sensor_id;sensor_type;location;lat;lon;timestamp;P1;durP1;ratioP1;P2;durP2;ratioP2
7239;SDS011;3661;53.288;10.458;2023-06-14T00:00:11;1837.60;;;999.90;;
7239;SDS011;3661;53.288;10.458;2023-06-14T00:02:43;1837.45;;;999.90;;
7239;SDS011;3661;53.288;10.458;2023-06-14T00:05:17;1836.80;;;999.90;;
7239;SDS011;3661;53.288;10.458;2023-06-14T00:07:49;1835.82;;;999.90;;
7239;SDS011;3661;53.288;10.458;2023-06-14T00:10:23;1833.07;;;999.90;;
7239;SDS011;3661;53.288;10.458;2023-06-14T00:12:56;1821.60;;;999.90;;
7239;SDS011;3661;53.288;10.458;2023-06-14T00:15:31;1813.70;;;999.90;;
7239;SDS011;3661;53.288;10.458;2023-06-14T00:18:04;1838.20;;;999.90;;
7239;SDS011;3661;53.288;10.458;2023-06-14T00:20:37;1824.07;;;999.90;;
7239;SDS011;3661;53.288;10.458;2023-06-14T00:23:12;1815.90;;;999.90;;
7239;SDS011;3661;53.288;10.458;2023-06-14T00:25:45;1808.15;;;999.90;;
7239;SDS011;3661;53.288;10.458;2023-06-14T00:28:17;1820.97;;;999.90;;
7239;SDS011;3661;53.288;10.458;2023-06-14T00:30:49;1813.68;;;999.90;;
7239;SDS011;3661;53.288;10.458;2023-06-14T00:33:21;1788.78;;;999.90;;
7239;SDS011;3661;53.288;10.458;2023-06-14T00:35:54;1805.60;;;999.90;;
7239;SDS011;3661;53.288;10.458;2023-06-14T00:38:26;1817.18;;;999.90;;
7239;SDS011;3661;53.288;10.458;2023-06-14T00:40:59;1822.82;;;999.90;;
7239;SDS011;3661;53.288;10.458;2023-06-14T00:43:32;1816.97;;;999.90;;
7239;SDS011;3661;53.288;10.458;2023-06-14T00:46:05;1810.13;;;999.90;;
7239;SDS011;3661;53.288;10.458;2023-06-14T00:48:37;1797.70;;;999.90;;
7239;SDS011;3661;53.288;10.458;2023-06-14T00:51:12;1784.53;;;999.90;;
7239;SDS011;3661;53.288;10.458;2023-06-14T00:53:45;1799.05;;;999.90;;
7239;SDS011;3661;53.288;10.458;2023-06-14T00:56:20;1770.80;;;999.90;;
7239;SDS011;3661;53.288;10.458;2023-06-14T00:58:54;1779.95;;;999.90;;
7239;SDS011;3661;53.288;10.458;2023-06-14T01:01:27;1778.15;;;999.90;;
7239;SDS011;3661;53.288;10.458;2023-06-14T01:04:02;1779.13;;;999.90;;
7239;SDS011;3661;53.288;10.458;2023-06-14T01:06:38;1784.53;;;999.90;;
7239;SDS011;3661;53.288;10.458;2023-06-14T01:09:18;1754.22;;;999.90;;
7239;SDS011;3661;53.288;10.458;2023-06-14T01:11:58;1774.10;;;999.90;;
7239;SDS011;3661;53.288;10.458;2023-06-14T01:14:35;1755.53;;;999.90;;
7239;SDS011;3661;53.288;10.458;2023-06-14T01:17:11;1759.20;;;999.90;;
7239;SDS011;3661;53.288;10.458;2023-06-14T01:19:46;1773.47;;;999.90;;
7239;SDS011;3661;53.288;10.458;2023-06-14T01:22:21;1746.63;;;999.90;;
7239;SDS011;3661;53.288;10.458;2023-06-14T01:24:56;1763.80;;;999.90;;
7239;SDS011;3661;53.288;10.458;2023-06-14T01:27:28;1740.50;;;999.90;;
7239;SDS011;3661;53.288;10.458;2023-06-14T01:30:03;1752.88;;;999.90;;
7239;SDS011;3661;53.288;10.458;2023-06-14T01:32:36;1774.40;;;999.90;;
7239;SDS011;3661;53.288;10.458;2023-06-14T01:35:10;1756.70;;;999.90;;
7239;SDS011;3661;53.288;10.458;2023-06-14T01:37:42;1746.75;;;999.90;;
7239;SDS011;3661;53.288;10.458;2023-06-14T01:40:19;1752.75;;;999.90;;
7239;SDS011;3661;53.288;10.458;2023-06-14T01:42:52;1754.50;;;999.90;;
7239;SDS011;3661;53.288;10.458;2023-06-14T01:45:27;1753.57;;;999.90;;
7239;SDS011;3661;53.288;10.458;2023-06-14T01:48:00;1744.60;;;999.90;;
7239;SDS011;3661;53.288;10.458;2023-06-14T01:50:32;1753.82;;;999.90;;
7239;SDS011;3661;53.288;10.458;2023-06-14T01:53:09;1734.00;;;999.90;;
7239;SDS011;3661;53.288;10.458;2023-06-14T01:55:43;1734.25;;;999.90;;
7239;SDS011;3661;53.288;10.458;2023-06-14T01:58:18;1749.43;;;999.90;;
7239;SDS011;3661;53.288;10.458;2023-06-14T02:00:53;1748.60;;;999.90;;
7239;SDS011;3661;53.288;10.458;2023-06-14T02:03:26;1742.63;;;999.90;;
7239;SDS011;3661;53.288;10.458;2023-06-14T02:05:58;1735.55;;;999.90;;
7239;SDS011;3661;53.288;10.458;2023-06-14T02:08:31;1739.60;;;999.90;;
7239;SDS011;3661;53.288;10.458;2023-06-14T02:11:05;1723.43;;;999.90;;
7239;SDS011;3661;53.288;10.458;2023-06-14T02:13:38;1730.88;;;999.90;;
7239;SDS011;3661;53.288;10.458;2023-06-14T02:16:10;1728.20;;;999.90;;
7239;SDS011;3661;53.288;10.458;2023-06-14T02:18:44;1711.05;;;999.90;;
7239;SDS011;3661;53.288;10.458;2023-06-14T02:21:17;1738.55;;;999.90;;
7239;SDS011;3661;53.288;10.458;2023-06-14T02:23:50;1730.75;;;999.90;;
7239;SDS011;3661;53.288;10.458;2023-06-14T02:26:23;1709.75;;;999.90;;
7239;SDS011;3661;53.288;10.458;2023-06-14T02:28:59;1704.67;;;999.90;;
7239;SDS011;3661;53.288;10.458;2023-06-14T02:31:31;1728.30;;;999.90;;
7239;SDS011;3661;53.288;10.458;2023-06-14T02:34:03;1698.03;;;999.90;;
7239;SDS011;3661;53.288;10.458;2023-06-14T02:36:38;1704.77;;;999.90;;
7239;SDS011;3661;53.288;10.458;2023-06-14T02:39:15;1706.10;;;999.90;;
7239;SDS011;3661;53.288;10.458;2023-06-14T02:41:54;1724.00;;;999.90;;
7239;SDS011;3661;53.288;10.458;2023-06-14T02:44:28;1706.95;;;999.90;;
7239;SDS011;3661;53.288;10.458;2023-06-14T02:47:02;1694.05;;;999.90;;
7239;SDS011;3661;53.288;10.458;2023-06-14T02:49:35;1707.97;;;999.90;;
7239;SDS011;3661;53.288;10.458;2023-06-14T02:52:08;1690.18;;;999.90;;
7239;SDS011;3661;53.288;10.458;2023-06-14T02:54:40;1704.53;;;999.90;;
7239;SDS011;3661;53.288;10.458;2023-06-14T02:57:14;1685.13;;;999.90;;
7239;SDS011;3661;53.288;10.458;2023-06-14T02:59:46;1697.85;;;999.90;;
7239;SDS011;3661;53.288;10.458;2023-06-14T03:02:18;1696.17;;;999.90;;
7239;SDS011;3661;53.288;10.458;2023-06-14T03:04:50;1673.38;;;999.90;;
7239;SDS011;3661;53.288;10.458;2023-06-14T03:07:24;1703.03;;;999.90;;
7239;SDS011;3661;53.288;10.458;2023-06-14T03:09:57;1674.15;;;999.90;;
7239;SDS011;3661;53.288;10.458;2023-06-14T03:12:31;1666.15;;;999.90;;
7239;SDS011;3661;53.288;10.458;2023-06-14T03:15:03;1669.38;;;999.90;;
7239;SDS011;3661;53.288;10.458;2023-06-14T03:17:36;1682.57;;;999.90;;
7239;SDS011;3661;53.288;10.458;2023-06-14T03:20:09;1687.18;;;999.90;;
7239;SDS011;3661;53.288;10.458;2023-06-14T03:22:41;1661.80;;;999.90;;
7239;SDS011;3661;53.288;10.458;2023-06-14T03:25:16;1653.93;;;999.90;;
7239;SDS011;3661;53.288;10.458;2023-06-14T03:27:52;1660.60;;;999.90;;
7239;SDS011;3661;53.288;10.458;2023-06-14T03:30:24;1685.03;;;999.90;;
7239;SDS011;3661;53.288;10.458;2023-06-14T03:32:56;1667.00;;;999.90;;
7239;SDS011;3661;53.288;10.458;2023-06-14T03:35:31;1670.90;;;999.90;;
7239;SDS011;3661;53.288;10.458;2023-06-14T03:38:03;1658.82;;;999.90;;
7239;SDS011;3661;53.288;10.458;2023-06-14T03:40:35;1670.82;;;999.90;;
7239;SDS011;3661;53.288;10.458;2023-06-14T03:43:08;1656.27;;;999.90;;
7239;SDS011;3661;53.288;10.458;2023-06-14T03:45:41;1640.47;;;999.90;;
7239;SDS011;3661;53.288;10.458;2023-06-14T03:48:13;1651.75;;;999.90;;
7239;SDS011;3661;53.288;10.458;2023-06-14T03:50:49;1643.18;;;999.90;;
7239;SDS011;3661;53.288;10.458;2023-06-14T03:53:21;1666.60;;;999.90;;
7239;SDS011;3661;53.288;10.458;2023-06-14T03:55:54;1626.60;;;999.90;;
7239;SDS011;3661;53.288;10.458;2023-06-14T03:58:31;1653.97;;;999.90;;
7239;SDS011;3661;53.288;10.458;2023-06-14T04:01:03;1651.60;;;999.90;;
7239;SDS011;3661;53.288;10.458;2023-06-14T04:03:37;1643.85;;;999.90;;
7239;SDS011;3661;53.288;10.458;2023-06-14T04:06:10;1649.82;;;999.90;;
7239;SDS011;3661;53.288;10.458;2023-06-14T04:08:42;1650.97;;;999.90;;
7239;SDS011;3661;53.288;10.458;2023-06-14T04:11:16;1664.85;;;999.90;;
7239;SDS011;3661;53.288;10.458;2023-06-14T04:13:51;1654.68;;;999.90;;
7239;SDS011;3661;53.288;10.458;2023-06-14T04:16:24;1649.32;;;999.90;;
7239;SDS011;3661;53.288;10.458;2023-06-14T04:18:56;1666.85;;;999.90;;
7239;SDS011;3661;53.288;10.458;2023-06-14T04:21:28;1671.03;;;999.90;;
7239;SDS011;3661;53.288;10.458;2023-06-14T04:24:00;1682.63;;;999.90;;
7239;SDS011;3661;53.288;10.458;2023-06-14T04:26:32;1679.88;;;999.90;;
7239;SDS011;3661;53.288;10.458;2023-06-14T04:29:06;1672.90;;;999.90;;
7239;SDS011;3661;53.288;10.458;2023-06-14T04:31:38;1692.80;;;999.90;;
7239;SDS011;3661;53.288;10.458;2023-06-14T04:34:12;1697.32;;;999.90;;
7239;SDS011;3661;53.288;10.458;2023-06-14T04:36:46;1680.93;;;999.90;;
7239;SDS011;3661;53.288;10.458;2023-06-14T04:39:23;1702.72;;;999.90;;
7239;SDS011;3661;53.288;10.458;2023-06-14T04:41:56;1724.83;;;999.90;;
7239;SDS011;3661;53.288;10.458;2023-06-14T04:44:32;1731.40;;;999.90;;
7239;SDS011;3661;53.288;10.458;2023-06-14T04:47:05;1759.45;;;999.90;;
7239;SDS011;3661;53.288;10.458;2023-06-14T04:49:37;1751.15;;;999.90;;
7239;SDS011;3661;53.288;10.458;2023-06-14T04:52:10;1772.50;;;999.90;;
7239;SDS011;3661;53.288;10.458;2023-06-14T04:54:43;1779.25;;;999.90;;
7239;SDS011;3661;53.288;10.458;2023-06-14T04:57:16;1768.28;;;999.90;;
7239;SDS011;3661;53.288;10.458;2023-06-14T04:59:53;1789.50;;;999.90;;
7239;SDS011;3661;53.288;10.458;2023-06-14T05:02:27;1782.43;;;999.90;;
7239;SDS011;3661;53.288;10.458;2023-06-14T05:05:00;1776.88;;;999.90;;
7239;SDS011;3661;53.288;10.458;2023-06-14T05:07:33;1794.87;;;999.90;;
7239;SDS011;3661;53.288;10.458;2023-06-14T05:10:05;1792.97;;;999.90;;
7239;SDS011;3661;53.288;10.458;2023-06-14T05:12:38;1793.28;;;999.90;;
7239;SDS011;3661;53.288;10.458;2023-06-14T05:15:12;1810.25;;;999.90;;
7239;SDS011;3661;53.288;10.458;2023-06-14T05:17:45;1798.43;;;999.90;;
7239;SDS011;3661;53.288;10.458;2023-06-14T05:20:23;1806.22;;;999.90;;
7239;SDS011;3661;53.288;10.458;2023-06-14T05:22:56;1804.10;;;999.90;;
7239;SDS011;3661;53.288;10.458;2023-06-14T05:25:28;1816.38;;;999.90;;
7239;SDS011;3661;53.288;10.458;2023-06-14T05:28:00;1820.00;;;999.90;;
7239;SDS011;3661;53.288;10.458;2023-06-14T05:30:34;1801.67;;;999.90;;
7239;SDS011;3661;53.288;10.458;2023-06-14T05:33:07;1827.50;;;999.90;;
7239;SDS011;3661;53.288;10.458;2023-06-14T05:35:39;1816.30;;;999.90;;
7239;SDS011;3661;53.288;10.458;2023-06-14T05:38:11;1822.07;;;999.90;;
7239;SDS011;3661;53.288;10.458;2023-06-14T05:40:43;1805.97;;;999.90;;
7239;SDS011;3661;53.288;10.458;2023-06-14T05:43:15;1806.47;;;999.90;;
7239;SDS011;3661;53.288;10.458;2023-06-14T05:45:51;1806.85;;;999.90;;
7239;SDS011;3661;53.288;10.458;2023-06-14T05:48:26;1812.32;;;999.90;;
7239;SDS011;3661;53.288;10.458;2023-06-14T05:50:59;1815.82;;;999.90;;
7239;SDS011;3661;53.288;10.458;2023-06-14T05:53:31;1813.38;;;999.90;;
7239;SDS011;3661;53.288;10.458;2023-06-14T05:56:03;1831.43;;;999.90;;
7239;SDS011;3661;53.288;10.458;2023-06-14T05:58:36;1831.63;;;999.90;;
7239;SDS011;3661;53.288;10.458;2023-06-14T06:01:09;1827.68;;;999.90;;
7239;SDS011;3661;53.288;10.458;2023-06-14T06:03:41;1831.72;;;999.90;;
7239;SDS011;3661;53.288;10.458;2023-06-14T06:06:15;1816.20;;;999.90;;
7239;SDS011;3661;53.288;10.458;2023-06-14T06:08:47;1837.63;;;999.90;;
7239;SDS011;3661;53.288;10.458;2023-06-14T06:11:20;1840.40;;;999.90;;
7239;SDS011;3661;53.288;10.458;2023-06-14T06:13:52;1849.47;;;999.90;;
7239;SDS011;3661;53.288;10.458;2023-06-14T06:16:25;1850.80;;;999.90;;
7239;SDS011;3661;53.288;10.458;2023-06-14T06:18:57;1869.45;;;999.90;;
7239;SDS011;3661;53.288;10.458;2023-06-14T06:21:29;1847.22;;;999.90;;
7239;SDS011;3661;53.288;10.458;2023-06-14T06:24:02;1845.88;;;999.90;;
7239;SDS011;3661;53.288;10.458;2023-06-14T06:26:35;1853.93;;;999.90;;
7239;SDS011;3661;53.288;10.458;2023-06-14T06:29:07;1862.38;;;999.90;;
7239;SDS011;3661;53.288;10.458;2023-06-14T06:31:41;1848.82;;;999.90;;
7239;SDS011;3661;53.288;10.458;2023-06-14T06:34:13;1863.32;;;999.90;;
7239;SDS011;3661;53.288;10.458;2023-06-14T06:36:45;1851.53;;;999.90;;
7239;SDS011;3661;53.288;10.458;2023-06-14T06:39:17;1856.65;;;999.90;;
7239;SDS011;3661;53.288;10.458;2023-06-14T06:41:50;1861.72;;;999.90;;
7239;SDS011;3661;53.288;10.458;2023-06-14T06:44:22;1866.93;;;999.90;;
7239;SDS011;3661;53.288;10.458;2023-06-14T06:46:57;1871.70;;;999.90;;
7239;SDS011;3661;53.288;10.458;2023-06-14T06:49:29;1869.93;;;999.90;;
7239;SDS011;3661;53.288;10.458;2023-06-14T06:52:01;1868.65;;;999.90;;
7239;SDS011;3661;53.288;10.458;2023-06-14T06:54:34;1867.43;;;999.90;;
7239;SDS011;3661;53.288;10.458;2023-06-14T06:57:06;1874.43;;;999.90;;
7239;SDS011;3661;53.288;10.458;2023-06-14T06:59:38;1880.35;;;999.90;;
7239;SDS011;3661;53.288;10.458;2023-06-14T07:02:12;1905.20;;;999.90;;
7239;SDS011;3661;53.288;10.458;2023-06-14T07:04:44;1896.15;;;999.90;;
7239;SDS011;3661;53.288;10.458;2023-06-14T07:07:17;1898.50;;;999.90;;
7239;SDS011;3661;53.288;10.458;2023-06-14T07:09:49;1907.72;;;999.90;;
7239;SDS011;3661;53.288;10.458;2023-06-14T07:12:21;1894.28;;;999.90;;
7239;SDS011;3661;53.288;10.458;2023-06-14T07:14:53;1915.40;;;999.90;;
7239;SDS011;3661;53.288;10.458;2023-06-14T07:17:26;1914.53;;;999.90;;
7239;SDS011;3661;53.288;10.458;2023-06-14T07:19:58;1922.17;;;999.90;;
7239;SDS011;3661;53.288;10.458;2023-06-14T07:22:35;1933.45;;;999.90;;
7239;SDS011;3661;53.288;10.458;2023-06-14T07:25:07;1926.13;;;999.90;;
7239;SDS011;3661;53.288;10.458;2023-06-14T07:27:40;1944.90;;;999.90;;
7239;SDS011;3661;53.288;10.458;2023-06-14T07:30:12;1940.10;;;999.90;;
7239;SDS011;3661;53.288;10.458;2023-06-14T07:32:46;1931.82;;;999.90;;
7239;SDS011;3661;53.288;10.458;2023-06-14T07:35:19;1924.85;;;999.90;;
7239;SDS011;3661;53.288;10.458;2023-06-14T07:37:51;1948.35;;;999.90;;
7239;SDS011;3661;53.288;10.458;2023-06-14T07:40:24;1944.25;;;999.90;;
7239;SDS011;3661;53.288;10.458;2023-06-14T07:42:56;1945.85;;;999.90;;
7239;SDS011;3661;53.288;10.458;2023-06-14T07:45:28;1951.68;;;999.90;;
7239;SDS011;3661;53.288;10.458;2023-06-14T07:48:01;1964.68;;;999.90;;
7239;SDS011;3661;53.288;10.458;2023-06-14T07:50:33;1971.22;;;999.90;;
7239;SDS011;3661;53.288;10.458;2023-06-14T07:53:05;1972.45;;;999.90;;
7239;SDS011;3661;53.288;10.458;2023-06-14T07:55:38;1989.05;;;999.90;;
7239;SDS011;3661;53.288;10.458;2023-06-14T07:58:12;1996.28;;;999.90;;
7239;SDS011;3661;53.288;10.458;2023-06-14T08:00:46;1973.55;;;999.90;;
7239;SDS011;3661;53.288;10.458;2023-06-14T08:03:20;1988.55;;;999.90;;
7239;SDS011;3661;53.288;10.458;2023-06-14T08:05:53;1993.00;;;999.90;;
7239;SDS011;3661;53.288;10.458;2023-06-14T08:08:25;1988.20;;;999.90;;
7239;SDS011;3661;53.288;10.458;2023-06-14T08:10:57;1992.22;;;999.90;;
7239;SDS011;3661;53.288;10.458;2023-06-14T08:13:29;1993.68;;;999.90;;
7239;SDS011;3661;53.288;10.458;2023-06-14T08:16:01;1999.90;;;999.90;;
7239;SDS011;3661;53.288;10.458;2023-06-14T08:18:36;1999.90;;;999.90;;
7239;SDS011;3661;53.288;10.458;2023-06-14T08:21:08;1999.90;;;999.90;;
7239;SDS011;3661;53.288;10.458;2023-06-14T08:23:40;1999.90;;;999.90;;
7239;SDS011;3661;53.288;10.458;2023-06-14T08:26:13;1999.90;;;999.90;;
7239;SDS011;3661;53.288;10.458;2023-06-14T08:28:45;1999.90;;;999.90;;
7239;SDS011;3661;53.288;10.458;2023-06-14T08:31:17;1999.90;;;999.90;;
7239;SDS011;3661;53.288;10.458;2023-06-14T08:33:51;1999.90;;;999.90;;
7239;SDS011;3661;53.288;10.458;2023-06-14T08:36:23;1999.90;;;999.90;;
7239;SDS011;3661;53.288;10.458;2023-06-14T08:38:55;1999.90;;;999.90;;
7239;SDS011;3661;53.288;10.458;2023-06-14T08:41:27;1999.90;;;999.90;;
7239;SDS011;3661;53.288;10.458;2023-06-14T08:44:00;1999.90;;;999.90;;
7239;SDS011;3661;53.288;10.458;2023-06-14T08:46:32;1999.90;;;999.90;;
7239;SDS011;3661;53.288;10.458;2023-06-14T08:49:06;1999.90;;;999.90;;
7239;SDS011;3661;53.288;10.458;2023-06-14T08:51:42;1999.90;;;999.90;;
7239;SDS011;3661;53.288;10.458;2023-06-14T08:54:15;1999.90;;;999.90;;
7239;SDS011;3661;53.288;10.458;2023-06-14T08:56:50;1999.90;;;999.90;;
7239;SDS011;3661;53.288;10.458;2023-06-14T08:59:23;1999.90;;;999.90;;
7239;SDS011;3661;53.288;10.458;2023-06-14T09:01:57;1999.90;;;999.90;;
7239;SDS011;3661;53.288;10.458;2023-06-14T09:04:31;1999.90;;;999.90;;
7239;SDS011;3661;53.288;10.458;2023-06-14T09:07:04;1999.90;;;999.90;;
7239;SDS011;3661;53.288;10.458;2023-06-14T09:09:38;1999.90;;;999.90;;
7239;SDS011;3661;53.288;10.458;2023-06-14T09:12:12;1999.90;;;999.90;;
7239;SDS011;3661;53.288;10.458;2023-06-14T09:14:44;1999.90;;;999.90;;
7239;SDS011;3661;53.288;10.458;2023-06-14T09:17:16;1999.90;;;999.90;;
7239;SDS011;3661;53.288;10.458;2023-06-14T09:19:49;1999.90;;;999.90;;
7239;SDS011;3661;53.288;10.458;2023-06-14T09:22:21;1999.90;;;999.90;;
7239;SDS011;3661;53.288;10.458;2023-06-14T09:24:53;1999.90;;;999.90;;
7239;SDS011;3661;53.288;10.458;2023-06-14T09:27:25;1999.90;;;999.90;;
7239;SDS011;3661;53.288;10.458;2023-06-14T09:29:58;1999.90;;;999.90;;
7239;SDS011;3661;53.288;10.458;2023-06-14T09:32:30;1999.90;;;999.90;;
7239;SDS011;3661;53.288;10.458;2023-06-14T09:35:04;1999.90;;;999.90;;
7239;SDS011;3661;53.288;10.458;2023-06-14T09:37:38;1999.90;;;999.90;;
7239;SDS011;3661;53.288;10.458;2023-06-14T09:40:11;1999.90;;;999.90;;
7239;SDS011;3661;53.288;10.458;2023-06-14T09:42:43;1999.90;;;999.90;;
7239;SDS011;3661;53.288;10.458;2023-06-14T09:45:15;1999.90;;;999.90;;
7239;SDS011;3661;53.288;10.458;2023-06-14T09:47:51;1999.90;;;999.90;;
7239;SDS011;3661;53.288;10.458;2023-06-14T09:50:25;1999.90;;;999.90;;
7239;SDS011;3661;53.288;10.458;2023-06-14T09:52:58;1999.90;;;999.90;;
7239;SDS011;3661;53.288;10.458;2023-06-14T09:55:37;1999.90;;;999.90;;
7239;SDS011;3661;53.288;10.458;2023-06-14T09:58:11;1999.90;;;999.90;;
7239;SDS011;3661;53.288;10.458;2023-06-14T10:00:45;1999.90;;;999.90;;
7239;SDS011;3661;53.288;10.458;2023-06-14T10:03:21;1999.90;;;999.90;;
7239;SDS011;3661;53.288;10.458;2023-06-14T10:05:58;1999.90;;;999.90;;
7239;SDS011;3661;53.288;10.458;2023-06-14T10:08:34;1999.90;;;999.90;;
7239;SDS011;3661;53.288;10.458;2023-06-14T10:11:08;1999.90;;;999.90;;
7239;SDS011;3661;53.288;10.458;2023-06-14T10:13:40;1999.90;;;999.90;;
7239;SDS011;3661;53.288;10.458;2023-06-14T10:16:19;1999.90;;;999.90;;
7239;SDS011;3661;53.288;10.458;2023-06-14T10:18:59;1999.90;;;999.90;;
7239;SDS011;3661;53.288;10.458;2023-06-14T10:21:43;1999.90;;;999.90;;
7239;SDS011;3661;53.288;10.458;2023-06-14T10:24:26;1999.90;;;999.90;;
7239;SDS011;3661;53.288;10.458;2023-06-14T10:27:01;1999.90;;;999.90;;
7239;SDS011;3661;53.288;10.458;2023-06-14T10:29:34;1999.90;;;999.90;;
7239;SDS011;3661;53.288;10.458;2023-06-14T10:32:06;1999.90;;;999.90;;
7239;SDS011;3661;53.288;10.458;2023-06-14T10:34:38;1999.90;;;999.90;;
7239;SDS011;3661;53.288;10.458;2023-06-14T10:37:12;1999.90;;;999.90;;
7239;SDS011;3661;53.288;10.458;2023-06-14T10:39:46;1999.90;;;999.90;;
7239;SDS011;3661;53.288;10.458;2023-06-14T10:42:18;1999.90;;;999.90;;
7239;SDS011;3661;53.288;10.458;2023-06-14T10:44:52;1999.90;;;999.90;;
7239;SDS011;3661;53.288;10.458;2023-06-14T10:47:27;1999.90;;;999.90;;
7239;SDS011;3661;53.288;10.458;2023-06-14T10:50:05;1999.90;;;999.90;;
7239;SDS011;3661;53.288;10.458;2023-06-14T10:52:40;1999.90;;;999.90;;
7239;SDS011;3661;53.288;10.458;2023-06-14T10:55:13;1999.90;;;999.90;;
7239;SDS011;3661;53.288;10.458;2023-06-14T10:57:48;1999.90;;;999.90;;
7239;SDS011;3661;53.288;10.458;2023-06-14T11:00:23;1999.90;;;999.90;;
7239;SDS011;3661;53.288;10.458;2023-06-14T11:06:13;1999.90;;;999.90;;
7239;SDS011;3661;53.288;10.458;2023-06-14T11:11:58;1999.90;;;999.90;;
7239;SDS011;3661;53.288;10.458;2023-06-14T11:14:33;1999.90;;;999.90;;
7239;SDS011;3661;53.288;10.458;2023-06-14T11:17:05;1999.90;;;999.90;;
7239;SDS011;3661;53.288;10.458;2023-06-14T11:19:37;1999.90;;;999.90;;
7239;SDS011;3661;53.288;10.458;2023-06-14T11:22:09;1999.90;;;999.90;;
7239;SDS011;3661;53.288;10.458;2023-06-14T11:24:42;1999.90;;;999.90;;
7239;SDS011;3661;53.288;10.458;2023-06-14T11:27:16;1999.90;;;999.90;;
7239;SDS011;3661;53.288;10.458;2023-06-14T11:29:48;1999.90;;;999.90;;
7239;SDS011;3661;53.288;10.458;2023-06-14T11:32:21;1999.90;;;999.90;;
7239;SDS011;3661;53.288;10.458;2023-06-14T11:34:54;1999.90;;;999.90;;
7239;SDS011;3661;53.288;10.458;2023-06-14T11:37:26;1999.90;;;999.90;;
7239;SDS011;3661;53.288;10.458;2023-06-14T11:40:00;1999.90;;;999.90;;
7239;SDS011;3661;53.288;10.458;2023-06-14T11:42:35;1999.90;;;999.90;;
7239;SDS011;3661;53.288;10.458;2023-06-14T11:45:08;1999.90;;;999.90;;
7239;SDS011;3661;53.288;10.458;2023-06-14T11:47:41;1999.90;;;999.90;;
7239;SDS011;3661;53.288;10.458;2023-06-14T11:50:13;1999.90;;;999.90;;
7239;SDS011;3661;53.288;10.458;2023-06-14T11:52:51;1999.90;;;999.90;;
7239;SDS011;3661;53.288;10.458;2023-06-14T11:55:24;1999.90;;;999.90;;
7239;SDS011;3661;53.288;10.458;2023-06-14T11:57:58;1999.90;;;999.90;;
7239;SDS011;3661;53.288;10.458;2023-06-14T12:00:30;1999.90;;;999.90;;
7239;SDS011;3661;53.288;10.458;2023-06-14T12:03:02;1999.90;;;999.90;;
7239;SDS011;3661;53.288;10.458;2023-06-14T12:05:34;1999.90;;;999.90;;
7239;SDS011;3661;53.288;10.458;2023-06-14T12:08:07;1999.90;;;999.90;;
7239;SDS011;3661;53.288;10.458;2023-06-14T12:10:39;1999.90;;;999.90;;
7239;SDS011;3661;53.288;10.458;2023-06-14T12:13:16;1999.90;;;999.90;;
7239;SDS011;3661;53.288;10.458;2023-06-14T12:15:53;1999.90;;;999.90;;
7239;SDS011;3661;53.288;10.458;2023-06-14T12:18:32;1999.90;;;999.90;;
7239;SDS011;3661;53.288;10.458;2023-06-14T12:21:05;1999.90;;;999.90;;
7239;SDS011;3661;53.288;10.458;2023-06-14T12:23:39;1999.90;;;999.90;;
7239;SDS011;3661;53.288;10.458;2023-06-14T12:26:14;1999.90;;;999.90;;
7239;SDS011;3661;53.288;10.458;2023-06-14T12:28:48;1999.90;;;999.90;;
7239;SDS011;3661;53.288;10.458;2023-06-14T12:31:20;1999.90;;;999.90;;
7239;SDS011;3661;53.288;10.458;2023-06-14T12:33:52;1999.90;;;999.90;;
7239;SDS011;3661;53.288;10.458;2023-06-14T12:36:24;1999.90;;;999.90;;
7239;SDS011;3661;53.288;10.458;2023-06-14T12:38:57;1999.90;;;999.90;;
7239;SDS011;3661;53.288;10.458;2023-06-14T12:41:29;1999.90;;;999.90;;
7239;SDS011;3661;53.288;10.458;2023-06-14T12:44:03;1999.90;;;999.90;;
7239;SDS011;3661;53.288;10.458;2023-06-14T12:46:36;1999.90;;;999.90;;
7239;SDS011;3661;53.288;10.458;2023-06-14T12:49:10;1999.90;;;999.90;;
7239;SDS011;3661;53.288;10.458;2023-06-14T12:51:42;1999.90;;;999.90;;
7239;SDS011;3661;53.288;10.458;2023-06-14T12:54:14;1999.90;;;999.90;;
7239;SDS011;3661;53.288;10.458;2023-06-14T12:56:47;1999.90;;;999.90;;
7239;SDS011;3661;53.288;10.458;2023-06-14T12:59:22;1999.90;;;999.90;;
7239;SDS011;3661;53.288;10.458;2023-06-14T13:01:55;1999.90;;;999.90;;
7239;SDS011;3661;53.288;10.458;2023-06-14T13:04:27;1999.90;;;999.90;;
7239;SDS011;3661;53.288;10.458;2023-06-14T13:06:59;1999.90;;;999.90;;
7239;SDS011;3661;53.288;10.458;2023-06-14T13:09:31;1999.90;;;999.90;;
7239;SDS011;3661;53.288;10.458;2023-06-14T13:12:04;1999.90;;;999.90;;
7239;SDS011;3661;53.288;10.458;2023-06-14T13:14:38;1999.90;;;999.90;;
7239;SDS011;3661;53.288;10.458;2023-06-14T13:17:11;1999.90;;;999.90;;
7239;SDS011;3661;53.288;10.458;2023-06-14T13:19:43;1999.90;;;999.90;;
7239;SDS011;3661;53.288;10.458;2023-06-14T13:22:15;1999.90;;;999.90;;
7239;SDS011;3661;53.288;10.458;2023-06-14T13:24:47;1999.90;;;999.90;;
7239;SDS011;3661;53.288;10.458;2023-06-14T13:27:19;1999.90;;;999.90;;
7239;SDS011;3661;53.288;10.458;2023-06-14T13:29:53;1999.90;;;999.90;;
7239;SDS011;3661;53.288;10.458;2023-06-14T13:32:25;1999.90;;;999.90;;
7239;SDS011;3661;53.288;10.458;2023-06-14T13:34:58;1999.90;;;999.90;;
7239;SDS011;3661;53.288;10.458;2023-06-14T13:37:30;1999.90;;;999.90;;
7239;SDS011;3661;53.288;10.458;2023-06-14T13:40:02;1999.90;;;999.90;;
7239;SDS011;3661;53.288;10.458;2023-06-14T13:42:35;1999.90;;;999.90;;
7239;SDS011;3661;53.288;10.458;2023-06-14T13:45:10;1999.90;;;999.90;;
7239;SDS011;3661;53.288;10.458;2023-06-14T13:47:43;1999.90;;;999.90;;
7239;SDS011;3661;53.288;10.458;2023-06-14T13:50:18;1999.90;;;999.90;;
7239;SDS011;3661;53.288;10.458;2023-06-14T13:52:50;1999.90;;;999.90;;
7239;SDS011;3661;53.288;10.458;2023-06-14T13:55:23;1999.90;;;999.90;;
7239;SDS011;3661;53.288;10.458;2023-06-14T13:57:55;1999.90;;;999.90;;
7239;SDS011;3661;53.288;10.458;2023-06-14T14:00:29;1999.90;;;999.90;;
7239;SDS011;3661;53.288;10.458;2023-06-14T14:03:02;1999.90;;;999.90;;
7239;SDS011;3661;53.288;10.458;2023-06-14T14:05:34;1999.90;;;999.90;;
7239;SDS011;3661;53.288;10.458;2023-06-14T14:08:06;1999.90;;;999.90;;
7239;SDS011;3661;53.288;10.458;2023-06-14T14:10:38;1999.90;;;999.90;;
7239;SDS011;3661;53.288;10.458;2023-06-14T14:13:11;1999.90;;;999.90;;
7239;SDS011;3661;53.288;10.458;2023-06-14T14:15:46;1999.90;;;999.90;;
7239;SDS011;3661;53.288;10.458;2023-06-14T14:18:19;1999.90;;;999.90;;
7239;SDS011;3661;53.288;10.458;2023-06-14T14:20:51;1999.90;;;999.90;;
7239;SDS011;3661;53.288;10.458;2023-06-14T14:23:23;1999.90;;;999.90;;
7239;SDS011;3661;53.288;10.458;2023-06-14T14:25:56;1999.90;;;999.90;;
7239;SDS011;3661;53.288;10.458;2023-06-14T14:28:28;1999.90;;;999.90;;
7239;SDS011;3661;53.288;10.458;2023-06-14T14:31:02;1999.90;;;999.90;;
7239;SDS011;3661;53.288;10.458;2023-06-14T14:33:34;1999.90;;;999.90;;
7239;SDS011;3661;53.288;10.458;2023-06-14T14:36:06;1999.90;;;999.90;;